createdAt,value
2018-11-29T00:00:38.584Z,94.18
2018-11-29T00:03:10.546Z,93.33
2018-11-29T00:05:41.031Z,93.78
2018-11-29T00:08:11.033Z,93.21
2018-11-29T00:10:41.021Z,93.10
2018-11-29T00:13:11.024Z,92.27
2018-11-29T00:15:41.083Z,93.23
2018-11-29T00:18:11.114Z,92.64
2018-11-29T00:20:41.192Z,93.31
2018-11-29T00:23:11.277Z,93.40
2018-11-29T00:25:41.289Z,92.46
2018-11-29T00:28:11.319Z,93.17
2018-11-29T00:30:41.342Z,92.82
2018-11-29T00:33:11.599Z,93.21
2018-11-29T00:35:41.642Z,92.31
2018-11-29T00:38:11.674Z,93.40
2018-11-29T00:40:41.658Z,92.61
2018-11-29T00:43:11.649Z,92.95
2018-11-29T00:45:41.715Z,92.25
2018-11-29T00:48:11.715Z,93.42
2018-11-29T00:50:41.774Z,92.68
2018-11-29T00:53:11.744Z,92.88
2018-11-29T00:55:41.768Z,92.84
2018-11-29T00:58:11.728Z,92.80
2018-11-29T01:00:41.734Z,93.67
2018-11-29T01:03:14.524Z,93.43
2018-11-29T01:05:44.536Z,93.56
2018-11-29T01:08:14.525Z,93.01
2018-11-29T01:10:44.544Z,93.36
2018-11-29T01:13:14.580Z,92.69
2018-11-29T01:15:44.568Z,93.03
2018-11-29T01:18:14.582Z,93.92
2018-11-29T01:20:44.588Z,93.14
2018-11-29T01:23:14.596Z,92.93
2018-11-29T01:25:44.762Z,93.91
2018-11-29T01:28:14.741Z,93.72
2018-11-29T01:30:44.952Z,93.41
2018-11-29T01:33:14.901Z,93.08
2018-11-29T01:35:44.910Z,92.76
2018-11-29T01:38:14.912Z,93.80
2018-11-29T01:40:44.961Z,93.62
2018-11-29T01:43:14.970Z,92.75
2018-11-29T01:45:44.995Z,92.95
2018-11-29T01:48:14.997Z,93.96
2018-11-29T01:50:45.276Z,93.05
2018-11-29T01:53:15.275Z,94.03
2018-11-29T01:55:45.364Z,94.09
2018-11-29T01:58:15.345Z,92.59
2018-11-29T02:00:45.381Z,93.32
2018-11-29T02:03:15.381Z,92.92
2018-11-29T02:05:45.539Z,93.34
2018-11-29T02:08:15.553Z,93.00
2018-11-29T02:10:50.440Z,94.07
2018-11-29T02:13:20.707Z,93.02
2018-11-29T02:15:50.727Z,93.87
2018-11-29T02:18:20.699Z,93.36
2018-11-29T02:20:50.677Z,94.55
2018-11-29T02:23:20.679Z,93.71
2018-11-29T02:25:50.747Z,94.39
2018-11-29T02:28:20.751Z,93.47
2018-11-29T02:30:50.765Z,94.26
2018-11-29T02:33:20.718Z,94.81
2018-11-29T02:35:50.735Z,94.56
2018-11-29T02:38:20.815Z,93.99
2018-11-29T02:40:50.861Z,94.61
2018-11-29T02:43:20.813Z,94.11
2018-11-29T02:45:50.827Z,94.25
2018-11-29T02:48:20.808Z,94.89
2018-11-29T02:50:50.831Z,94.97
2018-11-29T02:53:20.777Z,94.58
2018-11-29T02:55:50.817Z,94.55
2018-11-29T02:58:20.826Z,95.22
2018-11-29T03:00:50.822Z,94.92
2018-11-29T03:03:20.850Z,94.47
2018-11-29T03:05:50.943Z,94.66
2018-11-29T03:08:20.930Z,95.44
2018-11-29T03:10:51.195Z,94.85
2018-11-29T03:13:21.123Z,95.54
2018-11-29T03:15:51.141Z,96.03
2018-11-29T03:18:21.152Z,95.20
2018-11-29T03:20:51.136Z,95.32
2018-11-29T03:23:21.107Z,95.18
2018-11-29T03:25:51.093Z,94.87
2018-11-29T03:28:21.104Z,95.11
2018-11-29T03:30:51.543Z,95.84
2018-11-29T03:33:21.491Z,94.97
2018-11-29T03:35:51.515Z,95.03
2018-11-29T03:38:21.475Z,96.27
2018-11-29T03:40:51.466Z,96.01
2018-11-29T03:43:21.455Z,95.64
2018-11-29T03:45:51.486Z,96.46
2018-11-29T03:48:21.472Z,96.42
2018-11-29T03:50:51.474Z,95.28
2018-11-29T03:53:21.437Z,95.85
2018-11-29T03:55:51.490Z,96.50
2018-11-29T03:58:21.454Z,96.68
2018-11-29T04:00:51.476Z,97.22
2018-11-29T04:03:21.491Z,97.18
2018-11-29T04:05:51.547Z,96.61
2018-11-29T04:08:21.609Z,96.70
2018-11-29T04:10:51.681Z,97.14
2018-11-29T04:13:21.627Z,96.23
2018-11-29T04:15:51.662Z,96.81
2018-11-29T04:18:21.658Z,96.97
2018-11-29T04:20:51.742Z,96.56
2018-11-29T04:23:21.719Z,97.07
2018-11-29T04:25:51.813Z,96.48
2018-11-29T04:28:21.808Z,96.88
2018-11-29T04:30:51.858Z,97.44
2018-11-29T04:33:21.894Z,96.87
2018-11-29T04:35:51.932Z,97.71
2018-11-29T04:38:22.034Z,97.38
2018-11-29T04:40:52.088Z,96.40
2018-11-29T04:43:22.141Z,97.41
2018-11-29T04:46:03.439Z,97.24
2018-11-29T04:48:33.421Z,96.65
2018-11-29T04:51:03.450Z,96.61
2018-11-29T04:53:33.629Z,95.96
2018-11-29T04:56:03.885Z,97.15
2018-11-29T04:58:33.915Z,97.52
2018-11-29T05:01:03.911Z,96.95
2018-11-29T05:03:33.928Z,97.16
2018-11-29T05:06:04.722Z,95.96
2018-11-29T05:08:34.709Z,96.48
2018-11-29T05:11:05.015Z,96.70
2018-11-29T05:13:35.009Z,97.02
2018-11-29T05:16:05.003Z,97.32
2018-11-29T05:18:35.003Z,97.09
2018-11-29T05:21:05.018Z,96.54
2018-11-29T05:23:37.471Z,95.81
2018-11-29T05:26:07.505Z,96.69
2018-11-29T05:28:37.531Z,96.75
2018-11-29T05:31:07.605Z,96.18
2018-11-29T05:33:37.620Z,97.10
2018-11-29T05:36:07.677Z,96.30
2018-11-29T05:38:37.689Z,95.06
2018-11-29T05:41:07.781Z,95.99
2018-11-29T05:43:37.821Z,95.09
2018-11-29T05:46:07.819Z,95.02
2018-11-29T05:48:37.831Z,94.83
2018-11-29T05:51:14.291Z,94.84
2018-11-29T05:53:44.377Z,95.64
2018-11-29T05:56:14.389Z,94.93
2018-11-29T05:58:44.382Z,93.98
2018-11-29T06:01:19.421Z,94.99
2018-11-29T06:03:49.488Z,95.19
2018-11-29T06:06:19.463Z,95.25
2018-11-29T06:08:49.504Z,94.33
2018-11-29T06:11:19.476Z,94.59
2018-11-29T06:13:49.734Z,94.78
2018-11-29T06:16:19.715Z,94.36
2018-11-29T06:18:49.771Z,94.29
2018-11-29T06:21:19.763Z,93.39
2018-11-29T06:23:49.830Z,94.47
2018-11-29T06:26:20.025Z,94.14
2018-11-29T06:28:50.290Z,93.51
2018-11-29T06:31:20.280Z,93.97
2018-11-29T06:33:50.248Z,93.38
2018-11-29T06:36:20.305Z,93.98
2018-11-29T06:38:50.386Z,92.74
2018-11-29T06:41:20.396Z,92.31
2018-11-29T06:43:50.429Z,92.37
2018-11-29T06:46:20.488Z,93.20
2018-11-29T06:48:50.530Z,91.81
2018-11-29T06:51:20.559Z,91.56
2018-11-29T06:53:55.860Z,91.81
2018-11-29T06:56:25.898Z,90.91
2018-11-29T06:58:55.969Z,90.65
2018-11-29T07:01:26.059Z,89.62
2018-11-29T07:03:56.164Z,90.46
2018-11-29T07:06:26.196Z,90.23
2018-11-29T07:08:56.190Z,90.13
2018-11-29T07:11:26.188Z,89.26
2018-11-29T07:13:56.308Z,89.67
2018-11-29T07:16:26.352Z,89.03
2018-11-29T07:18:56.370Z,88.29
2018-11-29T07:21:37.660Z,87.61
2018-11-29T07:24:07.692Z,86.89
2018-11-29T07:26:37.740Z,86.47
2018-11-29T07:29:07.828Z,86.33
2018-11-29T07:31:37.858Z,86.05
2018-11-29T07:34:07.910Z,86.10
2018-11-29T07:36:38.048Z,86.26
2018-11-29T07:39:10.395Z,85.06
2018-11-29T07:41:40.560Z,85.85
2018-11-29T07:44:10.994Z,85.72
2018-11-29T07:46:40.966Z,84.66
2018-11-29T07:49:11.134Z,85.49
2018-11-29T07:51:41.145Z,83.50
2018-11-29T07:54:11.502Z,83.63
2018-11-29T07:56:41.509Z,82.97
2018-11-29T07:59:11.465Z,82.35
2018-11-29T08:01:41.485Z,83.56
2018-11-29T08:04:11.525Z,83.10
2018-11-29T08:06:41.531Z,82.99
2018-11-29T08:09:11.591Z,82.22
2018-11-29T08:11:41.695Z,81.15
2018-11-29T08:14:11.705Z,79.55
2018-11-29T08:16:41.763Z,78.83
2018-11-29T08:19:11.814Z,76.61
2018-11-29T08:21:41.857Z,77.61
2018-11-29T08:24:11.965Z,78.10
2018-11-29T08:26:41.986Z,78.81
2018-11-29T08:29:11.981Z,77.86
2018-11-29T08:31:42.035Z,75.56
2018-11-29T08:34:12.083Z,73.76
2018-11-29T08:36:42.086Z,72.79
2018-11-29T08:39:12.159Z,70.43
2018-11-29T08:41:42.782Z,72.18
2018-11-29T08:44:12.939Z,74.30
2018-11-29T08:46:42.967Z,73.25
2018-11-29T08:49:13.087Z,72.89
2018-11-29T08:51:43.129Z,72.82
2018-11-29T08:54:13.165Z,71.51
2018-11-29T08:56:43.221Z,71.44
2018-11-29T08:59:13.311Z,70.77
2018-11-29T09:01:43.301Z,69.41
2018-11-29T09:04:13.360Z,67.72
2018-11-29T09:06:43.394Z,66.84
2018-11-29T09:09:13.437Z,66.52
2018-11-29T09:11:43.429Z,66.63
2018-11-29T09:14:13.532Z,68.52
2018-11-29T09:16:43.553Z,68.67
2018-11-29T09:19:13.553Z,69.30
2018-11-29T09:21:43.705Z,69.13
2018-11-29T09:24:13.711Z,68.44
2018-11-29T09:26:43.663Z,69.36
2018-11-29T09:29:13.882Z,68.99
2018-11-29T09:31:44.119Z,68.02
2018-11-29T09:34:14.109Z,66.20
2018-11-29T09:36:44.101Z,64.28
2018-11-29T09:39:14.173Z,63.76
2018-11-29T09:41:44.407Z,64.13
2018-11-29T09:44:14.490Z,63.80
2018-11-29T09:46:44.595Z,65.14
2018-11-29T09:49:14.615Z,64.17
2018-11-29T09:51:44.681Z,63.22
2018-11-29T09:54:14.715Z,62.89
2018-11-29T09:56:44.771Z,64.11
2018-11-29T09:59:14.839Z,63.77
2018-11-29T10:01:45.354Z,62.16
2018-11-29T10:04:15.361Z,62.02
2018-11-29T10:06:45.377Z,60.68
2018-11-29T10:09:15.393Z,62.49
2018-11-29T10:11:45.557Z,63.95
2018-11-29T10:14:15.529Z,63.46
2018-11-29T10:16:45.539Z,60.55
2018-11-29T10:19:15.608Z,59.19
2018-11-29T10:21:45.689Z,58.66
2018-11-29T10:24:15.694Z,58.70
2018-11-29T10:26:45.764Z,58.14
2018-11-29T10:29:15.843Z,57.89
2018-11-29T10:31:45.905Z,57.91
2018-11-29T10:34:15.901Z,57.48
2018-11-29T10:36:45.939Z,59.43
2018-11-29T10:39:16.013Z,59.79
2018-11-29T10:41:46.040Z,59.69
2018-11-29T10:44:16.157Z,59.44
2018-11-29T10:46:46.197Z,57.67
2018-11-29T10:49:16.307Z,56.06
2018-11-29T10:51:46.403Z,54.54
2018-11-29T10:54:16.883Z,55.02
2018-11-29T10:56:46.493Z,56.38
2018-11-29T10:59:16.569Z,56.71
2018-11-29T11:01:50.755Z,56.81
2018-11-29T11:04:20.893Z,55.84
2018-11-29T11:06:50.929Z,55.73
2018-11-29T11:09:20.937Z,55.69
2018-11-29T11:11:50.951Z,53.97
2018-11-29T11:14:20.995Z,52.39
2018-11-29T11:16:50.993Z,49.78
2018-11-29T11:19:21.095Z,47.41
2018-11-29T11:21:51.055Z,48.45
2018-11-29T11:24:21.095Z,52.24
2018-11-29T11:26:51.157Z,51.97
2018-11-29T11:29:21.182Z,52.21
2018-11-29T11:31:51.195Z,51.56
2018-11-29T11:34:21.235Z,52.12
2018-11-29T11:36:51.314Z,51.67
2018-11-29T11:39:21.468Z,50.36
2018-11-29T11:41:51.755Z,49.56
2018-11-29T11:44:21.819Z,48.46
2018-11-29T11:46:51.821Z,48.68
2018-11-29T11:49:21.843Z,48.66
2018-11-29T11:51:51.870Z,48.19
2018-11-29T11:54:21.908Z,46.23
2018-11-29T11:56:51.961Z,46.45
2018-11-29T11:59:22.040Z,46.38
2018-11-29T12:01:52.101Z,46.15
2018-11-29T12:04:22.560Z,48.18
2018-11-29T12:06:53.122Z,48.00
2018-11-29T12:09:23.210Z,48.68
2018-11-29T12:11:53.254Z,48.22
2018-11-29T12:14:23.279Z,48.46
2018-11-29T12:16:53.421Z,48.05
2018-11-29T12:19:23.552Z,48.10
2018-11-29T12:21:53.602Z,47.73
2018-11-29T12:24:23.740Z,47.63
2018-11-29T12:26:53.783Z,47.88
2018-11-29T12:29:23.878Z,49.11
2018-11-29T12:31:54.077Z,51.25
2018-11-29T12:34:24.129Z,52.49
2018-11-29T12:36:54.124Z,54.22
2018-11-29T12:39:24.305Z,54.80
2018-11-29T12:41:54.380Z,53.96
2018-11-29T12:44:24.417Z,53.37
2018-11-29T12:46:54.476Z,53.91
2018-11-29T12:49:24.469Z,53.10
2018-11-29T12:51:54.557Z,53.82
2018-11-29T12:54:24.579Z,52.42
2018-11-29T12:56:54.703Z,52.14
2018-11-29T12:59:24.760Z,53.18
2018-11-29T13:01:54.899Z,52.81
2018-11-29T13:04:25.640Z,52.86
2018-11-29T13:06:55.874Z,52.54
2018-11-29T13:09:26.068Z,53.30
2018-11-29T13:11:56.110Z,52.91
2018-11-29T13:14:26.177Z,53.17
2018-11-29T13:16:56.181Z,53.28
2018-11-29T13:19:26.276Z,53.68
2018-11-29T13:21:56.478Z,54.14
2018-11-29T13:24:26.590Z,54.43
2018-11-29T13:26:56.652Z,54.59
2018-11-29T13:29:26.676Z,54.25
2018-11-29T13:31:56.681Z,54.51
2018-11-29T13:34:26.718Z,54.77
2018-11-29T13:36:56.748Z,54.52
2018-11-29T13:39:26.986Z,55.12
2018-11-29T13:41:57.051Z,55.60
2018-11-29T13:44:27.146Z,55.49
2018-11-29T13:46:57.151Z,55.63
2018-11-29T13:49:27.148Z,56.52
2018-11-29T13:51:57.185Z,55.91
2018-11-29T13:54:27.245Z,55.87
2018-11-29T13:56:57.530Z,56.04
2018-11-29T13:59:27.334Z,57.03
2018-11-29T14:01:57.792Z,56.52
2018-11-29T14:04:27.897Z,57.28
2018-11-29T14:06:58.091Z,57.08
2018-11-29T14:09:28.197Z,57.65
2018-11-29T14:11:58.403Z,58.53
2018-11-29T14:14:28.425Z,58.93
2018-11-29T14:16:58.661Z,59.84
2018-11-29T14:19:28.825Z,59.30
2018-11-29T14:21:58.917Z,59.83
2018-11-29T14:24:29.002Z,60.46
2018-11-29T14:26:59.131Z,59.64
2018-11-29T14:29:29.185Z,60.07
2018-11-29T14:31:59.397Z,60.50
2018-11-29T14:34:29.511Z,60.52
2018-11-29T14:36:59.570Z,60.77
2018-11-29T14:39:29.645Z,60.66
2018-11-29T14:41:59.676Z,60.25
2018-11-29T14:44:29.742Z,60.18
2018-11-29T14:46:59.775Z,60.89
2018-11-29T14:49:29.827Z,60.87
2018-11-29T14:52:08.107Z,60.77
2018-11-29T14:54:37.195Z,60.42
2018-11-29T14:57:07.266Z,60.72
2018-11-29T14:59:38.997Z,61.09
2018-11-29T15:02:09.085Z,61.43
2018-11-29T15:04:39.097Z,61.58
2018-11-29T15:07:09.100Z,61.37
2018-11-29T15:09:39.218Z,61.53
2018-11-29T15:12:09.233Z,62.24
2018-11-29T15:14:39.251Z,62.43
2018-11-29T15:17:10.013Z,62.38
2018-11-29T15:19:40.203Z,62.25
2018-11-29T15:22:10.194Z,63.03
2018-11-29T15:24:40.225Z,62.67
2018-11-29T15:27:10.817Z,62.63
2018-11-29T15:29:40.816Z,62.51
2018-11-29T15:32:10.846Z,61.92
2018-11-29T15:34:41.652Z,61.33
2018-11-29T15:37:11.596Z,61.09
2018-11-29T15:39:41.656Z,59.57
2018-11-29T15:42:11.653Z,60.06
2018-11-29T15:44:41.766Z,59.81
2018-11-29T15:47:11.800Z,58.66
2018-11-29T15:49:41.789Z,58.56
2018-11-29T15:52:11.881Z,59.00
2018-11-29T15:54:41.923Z,58.34
2018-11-29T15:57:11.933Z,57.81
2018-11-29T15:59:41.965Z,58.03
2018-11-29T16:02:11.994Z,57.76
2018-11-29T16:04:42.125Z,57.55
2018-11-29T16:07:12.151Z,57.92
2018-11-29T16:09:42.192Z,57.90
2018-11-29T16:12:12.260Z,57.37
2018-11-29T16:14:43.541Z,57.33
2018-11-29T16:17:12.304Z,58.40
2018-11-29T16:19:42.323Z,58.13
2018-11-29T16:22:12.265Z,58.99
2018-11-29T16:24:42.329Z,59.64
2018-11-29T16:27:12.369Z,60.28
2018-11-29T16:29:42.413Z,60.03
2018-11-29T16:32:13.000Z,60.14
2018-11-29T16:34:43.024Z,59.72
2018-11-29T16:37:12.994Z,60.24
2018-11-29T16:39:43.270Z,59.40
2018-11-29T16:42:13.282Z,58.65
2018-11-29T16:44:43.290Z,58.33
2018-11-29T16:47:13.236Z,58.34
2018-11-29T16:49:43.267Z,57.44
2018-11-29T16:52:13.254Z,58.65
2018-11-29T16:54:43.203Z,57.48
2018-11-29T16:57:13.210Z,57.82
2018-11-29T16:59:43.366Z,57.74
2018-11-29T17:02:13.340Z,57.57
2018-11-29T17:04:43.350Z,57.85
2018-11-29T17:07:13.369Z,58.50
2018-11-29T17:09:43.387Z,57.50
2018-11-29T17:12:13.456Z,57.69
2018-11-29T17:14:43.544Z,58.45
2018-11-29T17:17:13.592Z,58.01
2018-11-29T17:19:43.667Z,57.88
2018-11-29T17:22:13.693Z,57.97
2018-11-29T17:24:43.793Z,58.60
2018-11-29T17:27:13.803Z,58.96
2018-11-29T17:29:43.903Z,58.45
2018-11-29T17:32:13.907Z,58.85
2018-11-29T17:34:43.956Z,58.87
2018-11-29T17:37:13.997Z,59.51
2018-11-29T17:39:44.099Z,59.61
2018-11-29T17:42:14.106Z,59.10
2018-11-29T17:44:44.111Z,59.83
2018-11-29T17:47:14.228Z,60.20
2018-11-29T17:49:44.304Z,60.11
2018-11-29T17:52:14.424Z,60.45
2018-11-29T17:54:44.857Z,60.63
2018-11-29T17:57:14.911Z,60.65
2018-11-29T17:59:44.971Z,60.65
2018-11-29T18:02:14.985Z,60.90
2018-11-29T18:04:46.034Z,61.29
2018-11-29T18:07:16.219Z,62.05
2018-11-29T18:09:46.301Z,64.97
2018-11-29T18:12:16.331Z,61.72
2018-11-29T18:14:46.416Z,61.46
2018-11-29T18:17:16.442Z,62.29
2018-11-29T18:19:46.409Z,62.52
2018-11-29T18:22:16.745Z,62.52
2018-11-29T18:24:46.949Z,62.73
2018-11-29T18:27:17.134Z,62.25
2018-11-29T18:29:47.561Z,62.73
2018-11-29T18:32:17.579Z,62.50
2018-11-29T18:34:47.743Z,63.46
2018-11-29T18:37:17.749Z,63.78
2018-11-29T18:39:47.888Z,64.14
2018-11-29T18:42:17.914Z,64.43
2018-11-29T18:44:47.989Z,65.23
2018-11-29T18:47:18.216Z,65.29
2018-11-29T18:49:48.314Z,64.56
2018-11-29T18:52:18.338Z,64.80
2018-11-29T18:54:48.382Z,65.22
2018-11-29T18:57:18.387Z,65.05
2018-11-29T18:59:48.562Z,64.98
2018-11-29T19:02:18.575Z,65.82
2018-11-29T19:04:48.742Z,65.63
2018-11-29T19:07:19.608Z,64.89
2018-11-29T19:09:49.601Z,64.67
2018-11-29T19:12:19.642Z,65.82
2018-11-29T19:14:49.664Z,64.74
2018-11-29T19:17:24.993Z,64.66
2018-11-29T19:19:49.828Z,64.61
2018-11-29T19:22:19.865Z,64.12
2018-11-29T19:24:49.936Z,64.09
2018-11-29T19:27:20.252Z,63.41
2018-11-29T19:29:50.416Z,63.20
2018-11-29T19:32:20.426Z,63.30
2018-11-29T19:34:50.451Z,63.27
2018-11-29T19:37:20.514Z,63.43
2018-11-29T19:39:50.535Z,63.20
2018-11-29T19:42:20.652Z,64.26
2018-11-29T19:44:50.839Z,63.95
2018-11-29T19:47:20.913Z,64.21
2018-11-29T19:49:51.397Z,63.93
2018-11-29T19:52:21.481Z,64.44
2018-11-29T19:54:51.798Z,64.48
2018-11-29T19:57:21.891Z,64.35
2018-11-29T19:59:51.964Z,63.55
2018-11-29T20:02:21.991Z,64.11
2018-11-29T20:04:51.988Z,64.70
2018-11-29T20:07:23.024Z,65.05
2018-11-29T20:09:53.504Z,65.06
2018-11-29T20:12:23.591Z,65.04
2018-11-29T20:14:53.616Z,64.78
2018-11-29T20:17:23.663Z,65.16
2018-11-29T20:19:53.752Z,65.47
2018-11-29T20:22:23.767Z,65.27
2018-11-29T20:24:54.200Z,65.40
2018-11-29T20:27:24.254Z,65.89
2018-11-29T20:29:54.431Z,66.27
2018-11-29T20:32:24.488Z,66.06
2018-11-29T20:34:54.505Z,66.07
2018-11-29T20:37:24.510Z,66.35
2018-11-29T20:39:54.586Z,67.25
2018-11-29T20:42:24.582Z,67.30
2018-11-29T20:44:54.699Z,67.08
2018-11-29T20:47:25.031Z,67.19
2018-11-29T20:49:55.019Z,66.83
2018-11-29T20:52:25.175Z,67.32
2018-11-29T20:54:55.270Z,66.96
2018-11-29T20:57:25.265Z,67.41
2018-11-29T20:59:55.308Z,67.92
2018-11-29T21:02:25.305Z,68.35
2018-11-29T21:04:55.364Z,68.13
2018-11-29T21:07:25.457Z,68.52
2018-11-29T21:09:55.553Z,69.04
2018-11-29T21:12:25.620Z,68.42
2018-11-29T21:14:55.735Z,68.65
2018-11-29T21:17:25.753Z,69.59
2018-11-29T21:19:55.837Z,69.13
2018-11-29T21:22:25.908Z,68.96
2018-11-29T21:24:55.955Z,69.74
2018-11-29T21:27:26.013Z,69.74
2018-11-29T21:29:56.088Z,69.82
2018-11-29T21:32:26.078Z,69.71
2018-11-29T21:34:56.113Z,70.67
2018-11-29T21:37:26.150Z,69.88
2018-11-29T21:39:56.295Z,70.88
2018-11-29T21:42:26.301Z,69.86
2018-11-29T21:44:56.359Z,70.48
2018-11-29T21:47:26.463Z,70.68
2018-11-29T21:49:56.494Z,70.01
2018-11-29T21:52:26.505Z,70.28
2018-11-29T21:54:56.860Z,70.48
2018-11-29T21:57:27.480Z,70.88
2018-11-29T21:59:57.891Z,70.84
2018-11-29T22:02:28.282Z,70.41
2018-11-29T22:05:00.747Z,70.96
2018-11-29T22:07:31.068Z,71.29
2018-11-29T22:10:01.527Z,72.04
2018-11-29T22:12:31.862Z,71.69
2018-11-29T22:15:02.242Z,72.41
2018-11-29T22:17:32.552Z,71.18
2018-11-29T22:20:02.880Z,71.80
2018-11-29T22:22:33.169Z,72.68
2018-11-29T22:25:03.548Z,72.38
2018-11-29T22:27:33.917Z,72.60
2018-11-29T22:30:04.376Z,73.00
2018-11-29T22:32:34.688Z,73.27
2018-11-29T22:35:05.118Z,72.50
2018-11-29T22:37:35.409Z,72.32
2018-11-29T22:40:05.800Z,73.11
2018-11-29T22:42:36.914Z,73.31
2018-11-29T22:45:09.770Z,73.60
2018-11-29T22:47:40.544Z,73.66
2018-11-29T22:50:10.586Z,73.96
2018-11-29T22:52:40.590Z,74.77
2018-11-29T22:55:10.660Z,74.21
2018-11-29T22:57:40.762Z,74.34
2018-11-29T23:00:14.625Z,74.92
2018-11-29T23:02:44.764Z,74.13
2018-11-29T23:05:16.216Z,74.91
2018-11-29T23:07:46.471Z,75.51
2018-11-29T23:10:16.512Z,74.72
2018-11-29T23:12:46.688Z,75.49
2018-11-29T23:15:16.703Z,75.10
2018-11-29T23:17:46.802Z,75.83
2018-11-29T23:20:16.842Z,75.40
2018-11-29T23:22:46.896Z,75.72
2018-11-29T23:25:16.927Z,75.98
2018-11-29T23:27:47.056Z,75.63
2018-11-29T23:30:17.702Z,76.08
2018-11-29T23:32:47.835Z,75.91
2018-11-29T23:35:17.872Z,76.06
2018-11-29T23:37:47.942Z,77.09
2018-11-29T23:40:18.485Z,75.92
2018-11-29T23:42:48.528Z,76.89
2018-11-29T23:45:18.641Z,76.93
2018-11-29T23:47:48.733Z,76.47
2018-11-29T23:50:19.327Z,76.90
2018-11-29T23:52:51.343Z,76.92
2018-11-29T23:55:23.057Z,76.62
2018-11-29T23:57:53.054Z,77.27
